Edith Kirk — 2DST9 — position and weather

sailwx.info

Track history (hours):
 
Tides and Currents Weather Stations Pressure Air Temp Water Temp Dewpoint Dewpoint Depression Visibility Wind Speed Wind Dir Waves Ship Positions

Edith Kirk

Last reported at 2016-May-26 12:32 UTC. Time now 2016-May-26 12:40 UTC.
Position N 57°05' E 007°28'.

Length 183 m; draft 7.8 m.

Type: Ship. MMSI: 235081745.

Date/timePositionNaut miles runAvg speedWind from/ knotsBaromVisibWave heightAir tempDewpointWater temp
2016-May-26 12:32N 57°05' E 007°28'19913.2
2016-May-25 21:27N 54°09' E 004°43'2613.1
2016-May-25 19:29N 53°47' E 004°22'107 9.6
2016-May-25 08:20N 52°03' E 003°38'911.9
2016-May-25 07:33N 52°02' E 003°53'1110.7
2016-May-25 06:33N 51°58' E 004°09'7 7.0
2016-May-25 05:33N 51°53' E 004°18'0 0.1
2016-May-25 03:17N 51°53' E 004°17'0 0.0
2016-May-23 19:08N 51°53' E 004°17'0 0.5
2016-May-23 18:33N 51°53' E 004°18'4 3.9
2016-May-23 17:33N 51°56' E 004°13'10 9.9
2016-May-23 16:33N 51°60' E 003°58'1313.1
2016-May-23 15:32N 51°57' E 003°37'5 1.6
2016-May-23 12:13N 51°54' E 003°31'0 0.1
2016-May-23 11:30N 51°54' E 003°31'134 9.3
2016-May-22 21:06N 54°03' E 004°26'813.1
2016-May-22 20:30N 54°10' E 004°33'1313.1
2016-May-22 19:29N 54°21' E 004°45'28112.3
2016-May-21 20:33N 57°49' E 010°25'1212.2
2016-May-21 19:33N 57°47' E 010°48'1312.9
2016-May-21 18:33N 57°39' E 011°06'1312.9
2016-May-21 17:33N 57°29' E 011°23'1312.9
2016-May-21 16:33N 57°18' E 011°33'1313.2
2016-May-21 15:33N 57°05' E 011°41'1313.4
2016-May-21 14:33N 56°52' E 011°49'1211.9
2016-May-21 13:33N 56°41' E 011°49'3012.3
2016-May-21 11:06N 56°21' E 011°07'711.6
2016-May-21 10:30N 56°14' E 011°06'6212.5
2016-May-21 05:33N 55°13' E 011°06'1312.6
2016-May-21 04:33N 55°01' E 010°59'1312.9
2016-May-21 03:33N 54°49' E 010°50'1010.1
2016-May-21 02:33N 54°39' E 010°52'1313.0
2016-May-21 01:33N 54°35' E 011°13'1413.9
2016-May-21 00:33N 54°30' E 011°36'1413.8
2016-May-20 23:33N 54°27' E 011°59'1110.8
2016-May-20 22:33N 54°32' E 012°14'1111.1
2016-May-20 21:33N 54°40' E 012°28'4212.9
2016-May-20 18:16N 54°57' E 013°36'913.2
2016-May-20 17:33N 54°60' E 013°51'1312.8
2016-May-20 16:33N 55°07' E 014°09'1313.3
2016-May-20 15:33N 55°18' E 014°24'1313.4
2016-May-20 14:33N 55°27' E 014°41'1313.3
2016-May-20 13:33N 55°34' E 015°01'1313.2
2016-May-20 12:33N 55°39' E 015°22'1413.4
2016-May-20 11:33N 55°42' E 015°46'5613.5
2016-May-20 07:22N 55°56' E 017°23'1113.5
2016-May-20 06:33N 55°60' E 017°42'2913.5
2016-May-20 04:27N 56°14' E 018°26'21713.3
2016-May-19 12:06N 59°19' E 021°60'2113.2
2016-May-19 10:28N 59°32' E 022°34'1813.2
2016-May-19 09:08N 59°37' E 023°07'813.2
2016-May-19 08:33N 59°38' E 023°22'1313.4
2016-May-19 07:33N 59°42' E 023°48'1413.4
2016-May-19 06:29N 59°46' E 024°15'4213.3
2016-May-19 03:19N 59°54' E 025°37'1013.5
2016-May-19 02:34N 59°57' E 025°57'1413.5
2016-May-19 01:33N 59°60' E 026°23'1313.2
2016-May-19 00:33N 60°00' E 026°49'1212.4
2016-May-18 23:33N 60°03' E 027°14'1413.2
2016-May-18 22:28N 60°10' E 027°38'1112.0
2016-May-18 21:33N 60°10' E 028°01'1313.1
2016-May-18 20:33N 60°05' E 028°25'1010.1
2016-May-18 19:33N 59°56' E 028°35'1211.6
2016-May-18 18:33N 59°46' E 028°25'4 3.8
2016-May-18 17:31N 59°42' E 028°26'0 0.0
2016-May-17 19:33N 59°42' E 028°25'5 4.9
2016-May-17 18:33N 59°47' E 028°25'1 0.5
2016-May-17 17:27N 59°47' E 028°25'0 0.0
2016-May-17 16:30N 59°47' E 028°25'0 0.0
2016-May-17 15:30N 59°47' E 028°25'0 0.0
2016-May-17 14:30N 59°47' E 028°25'0 0.0
2016-May-17 13:30N 59°47' E 028°25'0 0.0
2016-May-17 12:33N 59°47' E 028°25'0 0.0
2016-May-17 11:33N 59°47' E 028°25'0 0.0
2016-May-17 10:33N 59°47' E 028°25'0 0.0
2016-May-17 09:29N 59°47' E 028°25'0 0.0
2016-May-17 08:33N 59°47' E 028°25'0 0.1
2016-May-17 07:33N 59°47' E 028°25'0 0.0
2016-May-17 06:33N 59°47' E 028°25'0 0.0
2016-May-17 05:33N 59°47' E 028°25'5 5.4
2016-May-17 04:33N 59°52' E 028°28'5 4.5
2016-May-17 03:23N 59°55' E 028°36'0 0.0
2016-May-17 02:26N 59°55' E 028°36'0 0.0
2016-May-17 01:26N 59°55' E 028°36'0 0.0
2016-May-17 00:30N 59°55' E 028°36'0 0.0
2016-May-16 23:29N 59°55' E 028°36'0 0.0
2016-May-16 22:29N 59°55' E 028°36'0 0.0
2016-May-16 21:29N 59°55' E 028°36'0 0.0
2016-May-16 20:32N 59°55' E 028°36'1 0.5
2016-May-16 19:33N 59°56' E 028°36'7 7.1
2016-May-16 18:33N 60°02' E 028°31'1413.5
2016-May-16 17:33N 60°08' E 028°06'1313.2
2016-May-16 16:33N 60°09' E 027°40'1414.2
2016-May-16 15:33N 60°01' E 027°15'1413.5
2016-May-16 14:32N 59°59' E 026°48'1513.9
2016-May-16 13:30N 59°57' E 026°20'  
Track history (hours):
 
Tides and Currents Weather Stations Pressure Air Temp Water Temp Dewpoint Dewpoint Depression Visibility Wind Speed Wind Dir Waves Ship Positions

Edith Kirk

Last reported at 2016-May-26 12:32 UTC. Time now 2016-May-26 12:40 UTC.
Position N 57°05' E 007°28'.

Length 183 m; draft 7.8 m.

Type: Ship. MMSI: 235081745.

Date/timePositionNaut miles runAvg speedWind from/ knotsBaromVisibWave heightAir tempDewpointWater temp
2016-May-26 12:32N 57°05' E 007°28'19913.2
2016-May-25 21:27N 54°09' E 004°43'2613.1
2016-May-25 19:29N 53°47' E 004°22'107 9.6
2016-May-25 08:20N 52°03' E 003°38'911.9
2016-May-25 07:33N 52°02' E 003°53'1110.7
2016-May-25 06:33N 51°58' E 004°09'7 7.0
2016-May-25 05:33N 51°53' E 004°18'0 0.1
2016-May-25 03:17N 51°53' E 004°17'0 0.0
2016-May-23 19:08N 51°53' E 004°17'0 0.5
2016-May-23 18:33N 51°53' E 004°18'4 3.9
2016-May-23 17:33N 51°56' E 004°13'10 9.9
2016-May-23 16:33N 51°60' E 003°58'1313.1
2016-May-23 15:32N 51°57' E 003°37'5 1.6
2016-May-23 12:13N 51°54' E 003°31'0 0.1
2016-May-23 11:30N 51°54' E 003°31'134 9.3
2016-May-22 21:06N 54°03' E 004°26'813.1
2016-May-22 20:30N 54°10' E 004°33'1313.1
2016-May-22 19:29N 54°21' E 004°45'28112.3
2016-May-21 20:33N 57°49' E 010°25'1212.2
2016-May-21 19:33N 57°47' E 010°48'1312.9
2016-May-21 18:33N 57°39' E 011°06'1312.9
2016-May-21 17:33N 57°29' E 011°23'1312.9
2016-May-21 16:33N 57°18' E 011°33'1313.2
2016-May-21 15:33N 57°05' E 011°41'1313.4
2016-May-21 14:33N 56°52' E 011°49'1211.9
2016-May-21 13:33N 56°41' E 011°49'3012.3
2016-May-21 11:06N 56°21' E 011°07'711.6
2016-May-21 10:30N 56°14' E 011°06'6212.5
2016-May-21 05:33N 55°13' E 011°06'1312.6
2016-May-21 04:33N 55°01' E 010°59'1312.9
2016-May-21 03:33N 54°49' E 010°50'1010.1
2016-May-21 02:33N 54°39' E 010°52'1313.0
2016-May-21 01:33N 54°35' E 011°13'1413.9
2016-May-21 00:33N 54°30' E 011°36'1413.8
2016-May-20 23:33N 54°27' E 011°59'1110.8
2016-May-20 22:33N 54°32' E 012°14'1111.1
2016-May-20 21:33N 54°40' E 012°28'4212.9
2016-May-20 18:16N 54°57' E 013°36'913.2
2016-May-20 17:33N 54°60' E 013°51'1312.8
2016-May-20 16:33N 55°07' E 014°09'1313.3
2016-May-20 15:33N 55°18' E 014°24'1313.4
2016-May-20 14:33N 55°27' E 014°41'1313.3
2016-May-20 13:33N 55°34' E 015°01'1313.2
2016-May-20 12:33N 55°39' E 015°22'1413.4
2016-May-20 11:33N 55°42' E 015°46'5613.5
2016-May-20 07:22N 55°56' E 017°23'1113.5
2016-May-20 06:33N 55°60' E 017°42'2913.5
2016-May-20 04:27N 56°14' E 018°26'21713.3
2016-May-19 12:06N 59°19' E 021°60'2113.2
2016-May-19 10:28N 59°32' E 022°34'1813.2
2016-May-19 09:08N 59°37' E 023°07'813.2
2016-May-19 08:33N 59°38' E 023°22'1313.4
2016-May-19 07:33N 59°42' E 023°48'1413.4
2016-May-19 06:29N 59°46' E 024°15'4213.3
2016-May-19 03:19N 59°54' E 025°37'1013.5
2016-May-19 02:34N 59°57' E 025°57'1413.5
2016-May-19 01:33N 59°60' E 026°23'1313.2
2016-May-19 00:33N 60°00' E 026°49'1212.4
2016-May-18 23:33N 60°03' E 027°14'1413.2
2016-May-18 22:28N 60°10' E 027°38'1112.0
2016-May-18 21:33N 60°10' E 028°01'1313.1
2016-May-18 20:33N 60°05' E 028°25'1010.1
2016-May-18 19:33N 59°56' E 028°35'1211.6
2016-May-18 18:33N 59°46' E 028°25'4 3.8
2016-May-18 17:31N 59°42' E 028°26'0 0.0
2016-May-17 19:33N 59°42' E 028°25'5 4.9
2016-May-17 18:33N 59°47' E 028°25'1 0.5
2016-May-17 17:27N 59°47' E 028°25'0 0.0
2016-May-17 16:30N 59°47' E 028°25'0 0.0
2016-May-17 15:30N 59°47' E 028°25'0 0.0
2016-May-17 14:30N 59°47' E 028°25'0 0.0
2016-May-17 13:30N 59°47' E 028°25'0 0.0
2016-May-17 12:33N 59°47' E 028°25'0 0.0
2016-May-17 11:33N 59°47' E 028°25'0 0.0
2016-May-17 10:33N 59°47' E 028°25'0 0.0
2016-May-17 09:29N 59°47' E 028°25'0 0.0
2016-May-17 08:33N 59°47' E 028°25'0 0.1
2016-May-17 07:33N 59°47' E 028°25'0 0.0
2016-May-17 06:33N 59°47' E 028°25'0 0.0
2016-May-17 05:33N 59°47' E 028°25'5 5.4
2016-May-17 04:33N 59°52' E 028°28'5 4.5
2016-May-17 03:23N 59°55' E 028°36'0 0.0
2016-May-17 02:26N 59°55' E 028°36'0 0.0
2016-May-17 01:26N 59°55' E 028°36'0 0.0
2016-May-17 00:30N 59°55' E 028°36'0 0.0
2016-May-16 23:29N 59°55' E 028°36'0 0.0
2016-May-16 22:29N 59°55' E 028°36'0 0.0
2016-May-16 21:29N 59°55' E 028°36'0 0.0
2016-May-16 20:32N 59°55' E 028°36'1 0.5
2016-May-16 19:33N 59°56' E 028°36'7 7.1
2016-May-16 18:33N 60°02' E 028°31'1413.5
2016-May-16 17:33N 60°08' E 028°06'1313.2
2016-May-16 16:33N 60°09' E 027°40'1414.2
2016-May-16 15:33N 60°01' E 027°15'1413.5
2016-May-16 14:32N 59°59' E 026°48'1513.9
2016-May-16 13:30N 59°57' E 026°20'  

Dump ship's entire track history